EDDNEDDK

Guest
Details From EDDN - Nurnberg
To EDDK - Koln Bonn
Flight Number -
Tags Routegen Generated
Created
Modified
Stats Distance 171 nm / 317 km
Max Altitude 900 ft / 274 m
Waypoints 7
Social Downloads 1
Likes 0
Share VATSIM

Download

Looking for another format? Having issues loading an existing format? Contact us
Advertisement - Login to hide

Notes

Departing runway 27 EDDN. Arriving runway 13 EDDK.

Route

EDDN +49.51_+010.95 +49.54_+010.87 +49.00_+009.61 +50.77_+007.32 +50.80_+007.24 EDDK

ID Type Via Altitude Latitude Longitude Leg Dist Tot Dist Heading (true) Name
O EDDN APT - 0 ft / 0 m 49.50055˚ 11.05918˚ - 0 nm - -
+49.51_+010.95 LATLON - 900 ft / 274 m 49.51136˚ 10.94899˚ 4 nm 4 nm 279° / 279° -
+49.54_+010.87 LATLON - 900 ft / 274 m 49.53907˚ 10.87069˚ 3 nm 7 nm 299° / 299° -
+49.00_+009.61 LATLON - 900 ft / 274 m 49.99520˚ 9.61387˚ 55 nm 63 nm 300° / 299° -
+50.77_+007.32 LATLON - 900 ft / 274 m 50.77492˚ 7.32408˚ 99 nm 163 nm 299° / 297° -
+50.80_+007.24 LATLON - 900 ft / 274 m 50.80175˚ 7.24294˚ 3 nm 166 nm 298° / 298° -
O EDDK APT - 0 ft / 0 m 50.85519˚ 7.16569˚ 4 nm 170 nm 318° / 318° -

Altitude Profile

Advertisement - Login to hide

Weather


0- 5 10 15 20 25 30 35+ Temperature / ° C

Clouds and Precipitation
Forecast for 2018-05-25 00:00 UTC. Updated 2 hours ago

Ground ~20,000 ft ~40,000 ft Winds

EDDN

Details ICAO EDDN (NUE)
Name Nurnberg
Region Germany - Civil
Timezone Europe/Berlin (UTC+2.0)
Stats Elevation 1,045 ft / 319 m (AMSL)
Location 49.498744° 11.077580°
Runways 1
Magnetic Variation 3.074° E

METAR

EDDN 250120Z 10005KT 9000 MIFG NSC 12/12 Q1019

Decode

TAF

TAF EDDN 242300Z 2500/2524 10005KT 9999 SCT030 PROB30 TEMPO 2503/2507 1200 BCFG BKN005 PROB30 TEMPO 2512/2516 TSRA BKN020CB

Decode

Departure Runways

ID Width Length Bearing (true) Bearing (mag) Surface Threshold Offset Overrun Length
10 148 ft / 45 m 8,819 ft / 2,688 m 98.60° 95.53° Asphalt 0 ft / 0 m 0 ft / 0 m
28 148 ft / 45 m 8,819 ft / 2,688 m 278.63° 275.56° Asphalt 0 ft / 0 m 0 ft / 0 m

EDDK

Details ICAO EDDK (CGN)
Name Koln Bonn
Region Germany - Civil
Timezone Europe/Berlin (UTC+2.0)
Stats Elevation 302 ft / 92 m (AMSL)
Location 50.865801° 7.138903°
Runways 3
Magnetic Variation 1.988° E

METAR

EDDK 250120Z 05003KT 9999 FEW042 SCT080 BKN230 14/14 Q1018 NOSIG

Decode

TAF

TAF EDDK 242300Z 2500/2606 11005KT CAVOK= TAF LDZD 242325Z 2500/2600 06006KT CAVOK TX27/2512Z TN15/2504Z BECMG 2507/2509 22007KT BECMG 2510/2512 30010KT PROB30 TEMPO 2513/2517 TS FEW030CB BECMG 2518/2520 06006KT

Decode

Destination Runways

ID Width Length Bearing (true) Bearing (mag) Surface Threshold Offset Overrun Length
06 148 ft / 45 m 8,047 ft / 2,453 m 64.33° 62.34° Concrete 0 ft / 0 m 197 ft / 60 m
14L 197 ft / 60 m 12,497 ft / 3,809 m 137.55° 135.56° Asphalt 0 ft / 0 m 197 ft / 60 m
14R 148 ft / 45 m 6,102 ft / 1,860 m 137.54° 135.55° Asphalt 0 ft / 0 m 197 ft / 60 m
24 148 ft / 45 m 8,047 ft / 2,453 m 244.36° 242.37° Concrete 0 ft / 0 m 197 ft / 60 m
32L 148 ft / 45 m 6,102 ft / 1,860 m 317.56° 315.57° Asphalt 0 ft / 0 m 197 ft / 60 m
32R 197 ft / 60 m 12,497 ft / 3,809 m 317.58° 315.59° Asphalt 0 ft / 0 m 197 ft / 60 m

Approach Navaids

Runway Type Ident Frequency Range Bearing (true) Bearing (mag) Slope Elevation
14L Localiser IKES 110.90 MHz 18 nm / 33 km 137.58° 135.59° - 302 ft / 92 m (AMSL)
14L Glidescope IKES 110.90 MHz 10 nm / 19 km 137.56° 135.57° 3.00° 230 ft / 70 m (AMSL)
24 Localiser IKOW 109.10 MHz 18 nm / 33 km 244.34° 242.35° - 231 ft / 70 m (AMSL)
24 Glidescope IKOW 109.10 MHz 10 nm / 19 km 244.34° 242.36° 3.00° 272 ft / 83 m (AMSL)
32R Localiser IKEN 109.70 MHz 18 nm / 33 km 317.55° 315.56° - 230 ft / 70 m (AMSL)
32R Glidescope IKEN 109.70 MHz 10 nm / 19 km 317.56° 315.57° 3.00° 302 ft / 92 m (AMSL)

Popular Alternatives